PINE FLAT DAM (PNF)

Elevation: 970' · KINGS R basin · Operator: US Army Corps of Engineers

Provisional data, subject to change.
Query executed Friday at 10:08:59   clock

Select a sensor type for a plot of data.
Note: Reservoir Flows are daily averages.

Earlier

Date RES ELE    STORAGE    RES CHG    TOC STO    ABV TOC    OUTFLOW    INFLOW    FNF    PPT INC    PPTINC4    TEMP MN    TEMP MX    WINDLEN    EVP PAN   
 FEET   AF   AF   AF   AF   CFS   CFS   CFS   INCHES   INCHES   DEG F   DEG F   MILES   INCHES  
01/13/2016 744.51 164078 1200 682086 -518008 128 737 536 0.01 0.00 -- -- 33 0.05
01/14/2016 745.04 165281 1203 683065 -517784 128 738 271 0.00 0.01 -- -- 40 0.05
01/15/2016 745.59 166536 1255 683134 -516598 129 766 710 0.20 0.00 -- -- 36 0.06
01/16/2016 745.98 167428 892 683149 -- 131 585 512 0.02 0.20 -- -- 39 0.05
01/17/2016 746.49 168599 1171 683549 -514950 134 729 569 0.00 0.05 -- -- 33 0.05
01/18/2016 747.15 170120 1521 683861 -513741 116 885 691 0.83 0.00 -- -- 32 0.04
01/19/2016 748.46 173161 3041 684191 -511030 86 1621 1494 0.85 0.83 -- -- 40 0.01
01/20/2016 749.88 176490 3329 684565 -508075 58 1741 1526 0.10 0.85 -- -- 43 0.06
01/21/2016 750.84 178760 2270 684913 -506153 68 1217 1062 0.00 0.00 -- -- 36 0.06
01/22/2016 751.61 180591 1831 685373 -504782 89 1016 757 0.24 0.00 -- -- 46 0.04
01/23/2016 752.65 183080 2489 685444 -502364 69 1328 1345 0.64 0.52 -- -- 42 0.05
01/24/2016 753.55 185249 2169 685651 -500402 55 1152 1088 0.00 0.36 -- -- 34 0.05
01/25/2016 754.27 186993 1744 685858 -498865 87 970 872 0.00 0.00 -- -- 25 0.05
01/26/2016 754.90 188527 1534 685990 -- 109 888 812 0.00 0.00 -- -- 38 0.07
01/27/2016 755.40 189749 1222 686267 -496518 115 735 551 0.00 0.00 -- -- 32 0.05
01/28/2016 755.94 191073 1324 686319 -495246 118 791 733 0.00 0.00 -- -- 41 0.06
01/29/2016 756.45 192328 1255 686386 -494058 116 753 672 0.00 0.00 -- -- 31 0.05
01/30/2016 757.57 195100 2772 686083 -490983 115 1514 1809 0.32 0.00 -- -- 32 0.02
01/31/2016 760.28 201894 6794 740000 -538106 74 3500 3684 2.64 0.61 -- -- 34 0.01
02/01/2016 761.86 205911 4017 740000 -534089 52 2081 1911 0.02 2.36 -- -- 31 0.05
02/02/2016 763.00 208836 2925 742954 -534118 51 1529 1433 0.00 0.00 -- -- 38 0.05
02/03/2016 764.03 211498 2662 745909 -- 51 1398 1261 0.00 0.00 -- -- 37 0.07
02/04/2016 764.91 213786 2288 748864 -535078 51 1210 1084 0.00 0.00 -- -- 40 0.07
02/05/2016 765.72 215903 2117 751818 -535915 52 1126 1080 0.00 0.00 -- -- 38 0.08
02/06/2016 766.48 217900 1997 754773 -536873 62 1075 882 0.00 0.00 -- -- 43 0.08
02/07/2016 767.23 219880 1980 757727 -537847 66 1071 1069 0.00 0.00 -- -- 41 0.08
02/08/2016 767.91 221684 1804 760682 -538998 71 988 1226 0.00 0.00 -- -- 37 0.09
02/09/2016 768.63 223602 1918 763636 -- 70 1044 1134 0.00 0.00 -- -- 35 0.10
02/10/2016 769.37 225582 1980 766591 -541009 71 1077 1201 0.00 0.00 -- -- 42 0.10
02/11/2016 770.13 227626 2044 -- -- 73 1111 -- 0.00 0.00 -- -- 36 0.09
02/12/2016 -- -- -- -- -- -- -- -- -- 0.00 -- -- -- --

Later | Latest

Warning! This data is preliminary and subject to revision.

Show PNF Map | Plot PNF Data | 1 Month PNF Data | Real-Time PNF Data | PNF Info